Terminal Aerodrome Forecast
Issued by NWS

Home | Current Version | Previous Version | Text Only | Print | Product List | Glossary On
Versions: 1 2 3 4 5 6 7 8 9 10 11 12
000
FTUS44 KCRP 252300
TAFLRD
TAF
KLRD 252320Z 2600/2624 14007KT P6SM SKC
     FM261000 16004KT 5SM BR SKC
      TEMPO 2610/2613 2SM BR SCT005
     FM261500 16008KT P6SM SKC=

USA.gov is the U.S. government's official web portal to all federal, state and local government web resources and services.